メインページ
METAR-TAF:

METAR-TAF

空港 :

カイロ国際空港

カイロ, エジプト

緯度: 30-08N, 経度: 031-24E, 海抜: 64m

現時点の気象観測

当レポートは8分前の05:30(UTC)に作成
無風
気温 25°C
湿度 44%
気圧 1012 hPa
視程: 6000m

METAR: HECA 220530Z 00000KT 6000 NSC 25/12 Q1012 NOSIG

時間: 07:38 (05:38 UTC)

予報

当レポートは38分前の05:00(UTC)に作成
予報は22日の 06時(UTC)から 23日の 12時(UTC)まで有効
南/南西の風 10kt
視程10km以上
1,500メートル以下は雲なし、積乱雲なし

TAF: HECA 220500Z 2206/2312 20010KT CAVOK

4,000以上の空港の気象観測と天気予報(METAR報とTAF報)

利用可能な観測所は地図上に黄色い丸と赤い丸で示す。

丸の上にカーソルを重ねると観測所名を参照できる。

次にクリックすると気象観測と天気予報を参照できる。

マップの切り替え:黒色「×」印の緑ボタンをクリックして拡大、「-」印の緑ボタンをクリックして縮小、緑色の三角印をクリックして隣りの地図に切り替え


METAR-TAF: